Alabama, New York
Current Conditions -  °F | °C
As of 6:54 PM on Sunday 25 Jan 2015 (Local Time) from KBUF Reporting Station
Scattered Clouds Scattered Clouds  
Wind Chill:   Ceiling: Unl
Heat Index: 15°   Visibility: 10mi
Dew Point:   Wind: 7mph
Humidity: 61%   Direction: 40°NE
Pressure: 30"   Gusts: NA
Location:  43.1°N, 78.39°W
Report Text: KBUF 252354Z 04006KT 10SM FEW130 SCT180 M09/M16 A3000 RMK AO2 SLP173 4/002 60000 T10941156 11067 21100 53021
Loading
Personal Weather Stations






























Interactive Weather Map New forecast layout! Learn more

10-Day Weather Forecast

Advertisements
Track Severe Weather on mobile